LEZLLPBJ

Guest
Details From LEZL - Sevilla
To LPBJ - BEJA
Flight Number -
Tags decoded
Created
Modified
Stats Distance 107 nm / 199 km
Max Altitude 0 ft / 0 m
Waypoints 4
Social Downloads 2
Likes 0
Share VATSIM

Download

Looking for another format? Having issues loading an existing format? Contact us
Advertisement - Login to hide

Notes

Requested: LEZL SANTA UM744 LASIB LPBJ Unmatched points: UM744

Route

LEZL SANTA LASIB LPBJ

ID Type Via Altitude Latitude Longitude Leg Dist Tot Dist Heading (true) Name
O LEZL APT - 0 ft / 0 m 37.41794˚ -5.89309˚ - 0 nm - Sevilla
SANTA FIX - 0 ft / 0 m 37.66854˚ -6.29835˚ 24 nm 24 nm 308° / 308° -
LASIB FIX - 0 ft / 0 m 38.03750˚ -7.22278˚ 49 nm 73 nm 297° / 297° -
O LPBJ APT - 0 ft / 0 m 38.07878˚ -7.93118˚ 33 nm 107 nm 274° / 274° BEJA

Altitude Profile

Advertisement - Login to hide

LEZL

Details ICAO LEZL (SVQ)
Name Sevilla
Region Spain
Timezone Europe/Madrid (UTC+2.0)
Stats Elevation 111 ft / 34 m (AMSL)
Location 37.417939° -5.893093°
Runways 1
Magnetic Variation 1.245° W

METAR

LEZL 230330Z VRB01KT CAVOK 16/13 Q1014 NOSIG

Decode

TAF

TAF LEZL 230200Z 2303/2403 16003KT CAVOK TX27/2316Z TN16/2305Z PROB40 TEMPO 2312/2318 SHRA FEW020TCU

Decode

Departure Runways

ID Width Length Bearing (true) Bearing (mag) Surface Threshold Offset Overrun Length
09 148 ft / 45 m 11,008 ft / 3,355 m 89.75° 91.00° Asphalt 0 ft / 0 m 0 ft / 0 m
27 148 ft / 45 m 11,008 ft / 3,355 m 269.77° 271.02° Asphalt 0 ft / 0 m 0 ft / 0 m

LPBJ

Details ICAO LPBJ
Name BEJA
Region Portugal
Timezone Europe/Lisbon (UTC+1.0)
Stats Elevation 636 ft / 194 m (AMSL)
Location 38.078784° -7.931182°
Runways 2
Magnetic Variation 1.894° W

METAR

LPBJ 230300Z /////KT CAVOK 12/12 Q1015

Decode

TAF

TAF LPBJ 222308Z 2300/2324 VRB02KT 9999 FEW040 PROB40 2302/2308 2000 BCFG BKN004 BECMG 2310/2312 16008KT CAVOK BECMG 2320/2322 VRB02KT FEW030 TEMPO 2320/2324 6000 SHRA FEW025TCU

Decode

Destination Runways

ID Width Length Bearing (true) Bearing (mag) Surface Threshold Offset Overrun Length
01L 197 ft / 60 m 11,341 ft / 3,457 m 5.90° 7.79° Concrete 0 ft / 0 m 902 ft / 275 m
01R 98 ft / 30 m 9,699 ft / 2,956 m 5.91° 7.80° Concrete 0 ft / 0 m 804 ft / 245 m
19L 98 ft / 30 m 9,699 ft / 2,956 m 185.91° 187.80° Concrete 0 ft / 0 m 833 ft / 254 m
19R 197 ft / 60 m 11,341 ft / 3,457 m 185.90° 187.79° Concrete 0 ft / 0 m 902 ft / 275 m

Approach Navaids

Runway Type Ident Frequency Range Bearing (true) Bearing (mag) Slope Elevation
19R Localiser BJ 110.30 MHz 18 nm / 33 km 185.90° 187.80° - 628 ft / 191 m (AMSL)
19R Glidescope BJ 110.30 MHz 10 nm / 19 km 185.90° 187.80° 3.00° 625 ft / 191 m (AMSL)

Popular Alternatives